Lake Brownwood, Texas
Current Conditions -  °F | °C
As of 4:15 AM on Friday 31 Oct 2014 (Local Time) from KBWD Reporting Station
Clear Clear  
Wind Chill: 59°   Ceiling: Unl
Heat Index: 59°   Visibility: 10mi
Dew Point: 46°   Wind: 5mph
Humidity: 63%   Direction: 360°N
Pressure: 30.24"   Gusts: NA
Location:  31.6193°N, 98.9922°W
Report Text: KBWD 310915Z AUTO 36004KT 10SM CLR 15/08 A3024 RMK AO2
Loading
Personal Weather Stations






























Interactive Weather Map
Tropical Storm Tracking
New forecast layout! Learn more

10-Day Weather Forecast

Advertisements
Track Severe Weather on mobile